Terminal Aerodrome Forecast
Issued by NWS

Home | Current Version | Previous Version | Text Only | Print | Product List | Glossary On
Versions: 1 2 3 4 5 6 7 8 9 10 11 12
000
FTUS45 KRIW 202300
TAFBPI
TAF
KBPI 202320Z 2100/2124 35007KT P6SM SCT050 BKN100
     FM210800 35005KT P6SM VCFG SCT040
     FM211000 VRB03KT P6SM VCFG SCT008 SCT035
     FM211600 VRB05KT P6SM SCT030 BKN060=

USA.gov is the U.S. government's official web portal to all federal, state and local government web resources and services.